Terminal Aerodrome Forecast
Issued by NWS Wilmington, OH

Home | Current Version | Previous Version | Text Only | Print | Product List | Glossary On
Versions: 1 2 3 4 5 6 7 8 9 10 11 12 13 14 15 16 17 18 19 20 21
000
FTUS41 KILN 280500
TAFILN
TAF
KILN 280523Z 2806/2906 30010KT P6SM VCSH BKN022
      TEMPO 2806/2807 -SHSN
     FM281000 27005KT P6SM FEW025 BKN040
     FM281500 22010KT P6SM BKN100
     FM282300 18008KT P6SM SCT050=

USA.gov is the U.S. government's official web portal to all federal, state and local government web resources and services.